Wingate, Indiana
Current Conditions -  °F | °C
As of 12:17 PM on Friday 28 Nov 2014 (Local Time) from KLAF Reporting Station
Scattered Clouds Scattered Clouds  
Wind Chill: 19°   Ceiling: Unl
Heat Index: 28°   Visibility: 10mi
Dew Point: 15°   Wind: 9mph
Humidity: 58%   Direction: 170°S
Pressure: 30.23"   Gusts: NA
Location:  40.17°N, 87.07°W
Report Text: KLAF 281717Z 17008KT 10SM SCT020 M02/M09 A3023 RMK AO2 T10221094
Loading
Personal Weather Stations






























Interactive Weather Map New forecast layout! Learn more

10-Day Weather Forecast

Advertisements
Track Severe Weather on mobile